Weather - Helsinki Query any day in the database

Current weather  

Weather data for a selected day (2006-01-01 -2020-10-30)
Enter date:     <-     scroll days         ->
day curves
Low temperature°C -5.223:30
High temperature°C +0.706:00
Low wind chill°C -11.423:30
Average temperature°C -1.1 
High wind speed (10 min) m/s 8.800:30
Low pressurehPa 970.407:00
High pressurehPa 981.523:30
Low R.H% 7614:30
High R.H% 10009:30
High precipitation (1h)mm 1.603:00
Total precipitation of the daymm 5.5 
Day weather data as a table
Date Time Temp
°C
Chill
°C
Pressure
hPA
Wind
m/s
Hum
%
Precip
mm
2017-02-23 23:30:00 -5.2  -11.4  981.5 4.9 88 -
2017-02-23 23:00:00 -4.4  -10.9  981.4 5.7 86 -
2017-02-23 22:30:00 -4.0  -11.3  980.9 7.4 84 -
2017-02-23 22:00:00 -4.4  -10.5  980.4 5.1 87 -
2017-02-23 21:30:00 -4.3  -10.5  979.9 5.3 85 -
2017-02-23 21:00:00 -3.9  -11.4  979.3 8.0 85 -
2017-02-23 20:30:00 -3.7  -10.8  979.2 7.2 84 -
2017-02-23 20:00:00 -3.1  -9.5  978.8 6.1 83 -
2017-02-23 19:30:00 -2.8  -9.6  978.5 7.1 83 -
2017-02-23 19:00:00 -2.5  -9.5  978.2 7.7 82 -
2017-02-23 18:30:00 -2.3  -8.0  977.9 5.3 86 -
2017-02-23 18:00:00 -2.1  -8.0  977.7 5.8 84 -
2017-02-23 17:30:00 -1.8  -7.5  977.3 5.5 82 -
2017-02-23 17:00:00 -1.4  -7.1  977.0 5.8 80 -
2017-02-23 16:30:00 -1.2  -7.4  976.7 6.9 80 -
2017-02-23 16:00:00 -1.0  -7.2  976.3 6.9 80 -
2017-02-23 15:30:00 -1.0  -6.2  976.0 5.1 81 -
2017-02-23 15:00:00 -1.1  -6.7  975.9 5.6 78 -
2017-02-23 14:30:00 -0.5  -6.4  975.5 6.7 76 -
2017-02-23 14:00:00 -1.1  -6.8  975.4 5.8 83 -
2017-02-23 13:30:00 -1.1  -7.0  975.2 6.2 82 -
2017-02-23 13:00:00 -1.0  -6.8  975.0 6.1 83 -
2017-02-23 12:30:00 -0.8  -6.9  974.4 6.8 85 -
2017-02-23 12:00:00 -0.6  -6.5  973.8 6.5 85 -
2017-02-23 11:30:00 -0.3  -5.8  973.3 5.9 89 -
2017-02-23 11:00:00 0.1  -5.7  972.8 6.8 91 0.1
2017-02-23 10:30:00 0.1  -5.4  972.1 6.1 99 -
2017-02-23 10:00:00 0.6  -3.7  971.7 4.2 99 0.1
2017-02-23 09:30:00 0.5  -3.8  971.4 4.2 100 -
2017-02-23 09:00:00 0.3  -3.6  971.2 3.6 100 0.3
2017-02-23 08:30:00 0.4  -4.6  971.0 5.3 99 -
2017-02-23 08:00:00 0.6  -4.9  970.8 6.4 99 0.4
2017-02-23 07:30:00 0.6  -5.0  970.6 6.6 99 -
2017-02-23 07:00:00 0.6  -5.3  970.4 7.4 99 0.2
2017-02-23 06:30:00 0.6  -4.9  970.5 6.4 99 -
2017-02-23 06:00:00 0.7  -4.9  970.5 6.8 99 0.4
2017-02-23 05:30:00 0.5  -5.2  970.5 6.8 99 -
2017-02-23 05:00:00 0.4  -5.6  970.7 7.5 99 0.4
2017-02-23 04:30:00 0.4  -5.7  970.7 7.8 99 -
2017-02-23 04:00:00 0.4  -5.8  970.9 7.9 99 0.7
2017-02-23 03:30:00 0.3  -5.7  971.1 7.3 99 -
2017-02-23 03:00:00 0.2  -5.8  971.4 7.2 99 1.6
2017-02-23 02:30:00 0.0  -5.8  971.6 6.8 99 -
2017-02-23 02:00:00 -0.6  -6.3  972.1 6.2 98 0.6
2017-02-23 01:30:00 -0.8  -7.2  972.5 7.5 98 -
2017-02-23 01:00:00 -1.2  -8.0  973.0 8.2 97 0.1
2017-02-23 00:30:00 -1.4  -8.5  973.4 8.8 96 -
2017-02-23 00:00:00 -1.6  -8.4  973.8 8.0 96 0.6
Unit conversions: